createdAt,value
2019-06-07T00:00:33.538Z,83.08
2019-06-07T00:02:46.993Z,83.24
2019-06-07T00:05:18.595Z,83.87
2019-06-07T00:07:45.534Z,85.11
2019-06-07T00:10:33.545Z,86.55
2019-06-07T00:12:45.135Z,86.57
2019-06-07T00:15:20.983Z,86.29
2019-06-07T00:17:44.766Z,86.66
2019-06-07T00:20:17.533Z,87.86
2019-06-07T00:22:44.436Z,87.50
2019-06-07T00:25:17.362Z,87.29
2019-06-07T00:27:43.529Z,87.63
2019-06-07T00:30:36.198Z,87.91
2019-06-07T00:32:43.080Z,87.42
2019-06-07T00:35:14.727Z,87.52
2019-06-07T00:37:42.174Z,88.14
2019-06-07T00:40:21.063Z,88.48
2019-06-07T00:42:41.179Z,88.30
2019-06-07T00:45:11.222Z,88.39
2019-06-07T00:47:40.099Z,87.96
2019-06-07T00:50:11.154Z,88.76
2019-06-07T00:53:14.090Z,88.50
2019-06-07T00:55:15.246Z,89.06
2019-06-07T00:57:42.619Z,89.06
2019-06-07T01:00:12.371Z,89.99
2019-06-07T01:02:41.102Z,90.50
2019-06-07T01:05:10.331Z,89.94
2019-06-07T01:07:38.778Z,90.45
2019-06-07T01:10:10.496Z,90.19
2019-06-07T01:12:38.914Z,90.70
2019-06-07T01:15:08.186Z,90.69
2019-06-07T01:17:50.195Z,90.97
2019-06-07T01:20:08.736Z,91.57
2019-06-07T01:22:37.173Z,91.38
2019-06-07T01:25:07.007Z,91.31
2019-06-07T01:27:35.411Z,91.30
2019-06-07T01:30:06.899Z,91.32
2019-06-07T01:32:35.328Z,91.17
2019-06-07T01:35:05.379Z,91.18
2019-06-07T01:37:33.801Z,91.11
2019-06-07T01:40:02.200Z,90.94
2019-06-07T01:42:31.123Z,90.79
2019-06-07T01:44:59.681Z,90.98
2019-06-07T01:47:31.635Z,91.46
2019-06-07T01:49:58.237Z,91.48
2019-06-07T01:52:26.842Z,92.09
2019-06-07T01:54:58.407Z,92.10
2019-06-07T01:57:38.444Z,92.37
2019-06-07T01:59:55.639Z,92.22
2019-06-07T02:02:28.023Z,92.15
2019-06-07T02:04:54.240Z,92.44
2019-06-07T02:07:25.830Z,92.64
2019-06-07T02:09:52.786Z,92.72
2019-06-07T02:12:28.028Z,93.02
2019-06-07T02:14:51.382Z,93.07
2019-06-07T02:17:20.376Z,93.60
2019-06-07T02:19:49.919Z,93.34
2019-06-07T02:22:18.345Z,93.52
2019-06-07T02:24:46.767Z,93.67
2019-06-07T02:27:15.207Z,93.53
2019-06-07T02:29:43.707Z,93.30
2019-06-07T02:32:12.111Z,92.80
2019-06-07T02:34:40.539Z,93.22
2019-06-07T02:37:08.952Z,93.45
2019-06-07T02:39:40.665Z,93.22
2019-06-07T02:42:07.539Z,92.47
2019-06-07T02:44:39.472Z,92.32
2019-06-07T02:47:06.204Z,92.76
2019-06-07T02:49:41.177Z,92.69
2019-06-07T02:52:04.894Z,92.44
2019-06-07T02:54:36.951Z,92.15
2019-06-07T02:57:03.446Z,91.90
2019-06-07T02:59:57.596Z,92.63
2019-06-07T03:02:02.139Z,92.80
2019-06-07T03:04:34.927Z,93.32
2019-06-07T03:07:02.813Z,93.64
2019-06-07T03:09:35.011Z,93.49
2019-06-07T03:12:03.889Z,93.37
2019-06-07T03:14:35.366Z,93.11
2019-06-07T03:17:13.090Z,92.81
2019-06-07T03:19:44.888Z,92.86
2019-06-07T03:22:13.327Z,92.63
2019-06-07T03:24:44.876Z,92.66
2019-06-07T03:27:36.291Z,93.22
2019-06-07T03:29:43.967Z,93.52
2019-06-07T03:32:12.422Z,93.89
2019-06-07T03:34:43.494Z,94.44
2019-06-07T03:37:10.957Z,94.03
2019-06-07T03:39:41.148Z,94.35
2019-06-07T03:42:09.691Z,93.59
2019-06-07T03:44:41.383Z,92.13
2019-06-07T03:47:08.294Z,91.86
2019-06-07T03:49:41.721Z,91.45
2019-06-07T03:52:06.878Z,91.52
2019-06-07T03:54:39.424Z,92.51
2019-06-07T03:57:05.469Z,93.02
2019-06-07T03:59:38.595Z,93.04
2019-06-07T04:02:04.060Z,93.29
2019-06-07T04:04:34.619Z,92.82
2019-06-07T04:07:02.653Z,91.59
2019-06-07T04:09:33.786Z,91.75
2019-06-07T04:12:01.203Z,91.08
2019-06-07T04:14:30.829Z,90.33
2019-06-07T04:16:59.708Z,90.35
2019-06-07T04:19:28.873Z,90.47
2019-06-07T04:21:57.913Z,89.82
2019-06-07T04:24:26.335Z,89.83
2019-06-07T04:26:54.754Z,89.98
2019-06-07T04:29:34.096Z,89.78
2019-06-07T04:31:53.295Z,90.18
2019-06-07T04:34:21.701Z,89.36
2019-06-07T04:36:59.053Z,88.10
2019-06-07T04:39:24.804Z,87.50
2019-06-07T04:41:55.168Z,87.24
2019-06-07T04:44:25.298Z,87.01
2019-06-07T04:46:57.316Z,87.45
2019-06-07T04:49:26.426Z,88.60
2019-06-07T04:51:56.957Z,89.33
2019-06-07T04:54:25.951Z,90.02
2019-06-07T04:56:54.412Z,90.09
2019-06-07T05:00:01.130Z,88.80
2019-06-07T05:01:53.020Z,86.96
2019-06-07T05:04:21.516Z,86.27
2019-06-07T05:06:49.934Z,85.04
2019-06-07T05:09:18.476Z,84.71
2019-06-07T05:11:46.899Z,83.09
2019-06-07T05:14:15.297Z,83.27
2019-06-07T05:16:44.517Z,81.21
2019-06-07T05:19:13.198Z,81.67
2019-06-07T05:22:02.074Z,81.87
2019-06-07T05:24:11.756Z,82.55
2019-06-07T05:26:42.681Z,82.53
2019-06-07T05:29:10.420Z,83.27
2019-06-07T05:31:42.383Z,83.49
2019-06-07T05:34:09.049Z,82.33
2019-06-07T05:36:39.827Z,80.54
2019-06-07T05:39:08.732Z,80.81
2019-06-07T05:41:40.727Z,79.71
2019-06-07T05:44:12.486Z,78.84
2019-06-07T05:46:38.603Z,79.00
2019-06-07T05:49:07.845Z,79.03
2019-06-07T05:51:38.095Z,78.34
2019-06-07T05:54:06.414Z,78.77
2019-06-07T05:56:35.863Z,79.40
2019-06-07T05:59:05.135Z,80.12
2019-06-07T06:02:00.234Z,77.77
2019-06-07T06:04:04.972Z,76.26
2019-06-07T06:06:33.892Z,78.51
2019-06-07T06:09:13.206Z,76.98
2019-06-07T06:11:45.727Z,78.36
2019-06-07T06:14:08.138Z,78.36
2019-06-07T06:16:32.867Z,76.51
2019-06-07T06:19:01.314Z,76.95
2019-06-07T06:21:29.743Z,76.30
2019-06-07T06:23:58.889Z,77.27
2019-06-07T06:26:27.304Z,77.17
2019-06-07T06:28:56.352Z,76.90
2019-06-07T06:31:24.707Z,78.20
2019-06-07T06:33:53.111Z,76.35
2019-06-07T06:36:22.036Z,77.04
2019-06-07T06:38:51.524Z,77.24
2019-06-07T06:41:21.087Z,78.46
2019-06-07T06:43:52.366Z,76.54
2019-06-07T06:46:37.306Z,75.55
2019-06-07T06:48:54.702Z,76.71
2019-06-07T06:51:20.299Z,76.17
2019-06-07T06:53:51.289Z,75.02
2019-06-07T06:56:18.915Z,75.66
2019-06-07T06:59:31.898Z,75.45
2019-06-07T07:01:17.546Z,75.78
2019-06-07T07:04:09.180Z,75.62
2019-06-07T07:06:26.209Z,74.44
2019-06-07T07:08:51.401Z,76.13
2019-06-07T07:11:23.096Z,73.71
2019-06-07T07:13:56.181Z,73.12
2019-06-07T07:16:21.182Z,74.02
2019-06-07T07:18:52.915Z,72.61
2019-06-07T07:21:19.715Z,72.94
2019-06-07T07:24:12.323Z,74.32
2019-06-07T07:26:18.375Z,74.53
2019-06-07T07:28:53.973Z,74.69
2019-06-07T07:31:16.870Z,73.28
2019-06-07T07:34:24.066Z,74.28
2019-06-07T07:36:35.601Z,72.67
2019-06-07T07:38:51.731Z,73.32
2019-06-07T07:41:16.136Z,70.98
2019-06-07T07:43:51.810Z,72.88
2019-06-07T07:46:30.513Z,71.78
2019-06-07T07:48:46.077Z,70.94
2019-06-07T07:51:14.606Z,72.00
2019-06-07T07:53:50.619Z,70.11
2019-06-07T07:56:13.175Z,69.53
2019-06-07T07:58:41.595Z,70.69
2019-06-07T08:01:11.343Z,69.69
2019-06-07T08:03:39.924Z,68.76
2019-06-07T08:06:08.379Z,68.84
2019-06-07T08:08:36.847Z,68.89
2019-06-07T08:11:05.328Z,70.03
2019-06-07T08:13:33.773Z,70.28
2019-06-07T08:16:09.819Z,68.19
2019-06-07T08:18:32.444Z,69.53
2019-06-07T08:21:21.338Z,68.61
2019-06-07T08:23:31.021Z,69.83
2019-06-07T08:26:01.137Z,68.06
2019-06-07T08:28:29.823Z,68.36
2019-06-07T08:31:06.031Z,68.12
2019-06-07T08:33:28.450Z,66.91
2019-06-07T08:36:10.371Z,66.84
2019-06-07T08:38:38.890Z,64.84
2019-06-07T08:41:10.728Z,65.44
2019-06-07T08:43:27.277Z,65.54
2019-06-07T08:46:01.580Z,64.13
2019-06-07T08:48:28.253Z,65.45
2019-06-07T08:51:00.715Z,64.70
2019-06-07T08:53:26.087Z,64.47
2019-06-07T08:56:04.410Z,64.06
2019-06-07T08:58:24.624Z,64.99
2019-06-07T09:00:55.514Z,63.36
2019-06-07T09:03:23.266Z,63.74
2019-06-07T09:05:53.368Z,62.64
2019-06-07T09:08:30.090Z,62.45
2019-06-07T09:10:54.064Z,63.18
2019-06-07T09:13:22.408Z,62.77
2019-06-07T09:15:50.851Z,63.07
2019-06-07T09:18:43.013Z,63.11
2019-06-07T09:20:49.869Z,63.22
2019-06-07T09:23:18.477Z,63.22
2019-06-07T09:25:57.443Z,62.24
2019-06-07T09:28:20.143Z,62.34
2019-06-07T09:30:47.337Z,62.77
2019-06-07T09:33:15.764Z,58.93
2019-06-07T09:35:44.467Z,58.98
2019-06-07T09:38:24.904Z,59.65
2019-06-07T09:40:43.045Z,57.70
2019-06-07T09:45:41.721Z,55.76
2019-06-07T09:48:15.448Z,58.39
2019-06-07T09:50:40.317Z,55.29
2019-06-07T09:53:21.170Z,58.19
2019-06-07T09:55:38.846Z,57.58
2019-06-07T09:58:48.630Z,58.03
2019-06-07T10:00:41.634Z,57.46
2019-06-07T10:03:17.687Z,57.99
2019-06-07T10:05:37.685Z,59.54
2019-06-07T10:08:25.669Z,57.87
2019-06-07T10:10:36.288Z,59.70
2019-06-07T10:13:06.492Z,56.61
2019-06-07T10:15:35.036Z,58.34
2019-06-07T10:18:04.800Z,57.03
2019-06-07T10:20:33.366Z,56.55
2019-06-07T10:23:01.779Z,57.81
2019-06-07T10:25:30.588Z,57.22
2019-06-07T10:28:00.064Z,56.56
2019-06-07T10:30:28.673Z,58.08
2019-06-07T10:32:57.165Z,56.01
2019-06-07T10:35:25.600Z,57.15
2019-06-07T10:37:54.027Z,58.10
2019-06-07T10:40:22.514Z,55.49
2019-06-07T10:42:50.939Z,56.32
2019-06-07T10:45:19.466Z,54.99
2019-06-07T10:47:47.894Z,56.83
2019-06-07T10:50:17.531Z,55.81
2019-06-07T10:52:45.950Z,57.06
2019-06-07T10:55:14.650Z,56.47
2019-06-07T10:57:43.129Z,55.86
2019-06-07T11:00:13.488Z,53.41
2019-06-07T11:02:42.217Z,54.43
2019-06-07T11:05:12.344Z,53.34
2019-06-07T11:07:40.848Z,53.46
2019-06-07T11:10:16.657Z,53.98
2019-06-07T11:12:40.053Z,57.34
2019-06-07T11:15:08.999Z,54.85
2019-06-07T11:17:37.490Z,55.74
2019-06-07T11:20:10.336Z,54.55
2019-06-07T11:22:39.010Z,55.06
2019-06-07T11:25:09.231Z,53.80
2019-06-07T11:27:38.433Z,55.27
2019-06-07T11:30:08.371Z,53.14
2019-06-07T11:32:36.995Z,55.19
2019-06-07T11:35:08.475Z,54.89
2019-06-07T11:37:37.024Z,51.61
2019-06-07T11:40:28.909Z,52.64
2019-06-07T11:42:40.276Z,49.16
2019-06-07T11:45:10.513Z,51.40
2019-06-07T11:47:39.693Z,51.67
2019-06-07T11:50:09.457Z,53.59
2019-06-07T11:52:38.255Z,54.93
2019-06-07T11:55:09.199Z,56.04
2019-06-07T11:57:37.980Z,55.03
2019-06-07T12:00:14.030Z,54.20
2019-06-07T12:02:42.653Z,52.15
2019-06-07T12:05:14.869Z,52.25
2019-06-07T12:07:41.427Z,52.65
2019-06-07T12:10:10.789Z,51.83
2019-06-07T12:12:39.379Z,55.19
2019-06-07T12:15:10.607Z,54.68
2019-06-07T12:17:39.372Z,55.19
2019-06-07T12:20:09.301Z,55.81
2019-06-07T12:22:38.403Z,53.57
2019-06-07T12:25:07.681Z,55.23
2019-06-07T12:27:36.090Z,55.25
2019-06-07T12:30:15.409Z,56.43
2019-06-07T12:32:39.545Z,54.31
2019-06-07T12:35:08.475Z,55.31
2019-06-07T12:37:43.573Z,56.72
2019-06-07T12:40:08.614Z,54.14
2019-06-07T12:42:37.255Z,55.93
2019-06-07T12:45:07.729Z,54.92
2019-06-07T12:47:36.132Z,55.58
2019-06-07T12:50:06.716Z,56.06
2019-06-07T12:52:35.116Z,55.18
2019-06-07T12:55:04.968Z,54.08
2019-06-07T12:57:33.415Z,53.49
2019-06-07T13:00:02.020Z,55.07
2019-06-07T13:02:31.708Z,49.68
2019-06-07T13:05:04.327Z,53.87
2019-06-07T13:07:30.317Z,52.78
2019-06-07T13:09:58.748Z,54.96
2019-06-07T13:12:28.219Z,55.43
2019-06-07T13:14:56.814Z,56.37
2019-06-07T13:17:25.252Z,56.56
2019-06-07T13:19:53.698Z,56.29
2019-06-07T13:22:22.363Z,56.70
2019-06-07T13:24:50.862Z,57.81
2019-06-07T13:27:20.365Z,57.25
2019-06-07T13:29:48.780Z,53.93
2019-06-07T13:32:17.500Z,53.35
2019-06-07T13:34:45.977Z,53.49
2019-06-07T13:37:14.399Z,56.08
2019-06-07T13:39:42.845Z,55.39
2019-06-07T13:42:11.257Z,55.27
2019-06-07T13:44:39.698Z,51.94
2019-06-07T13:47:08.225Z,51.94
2019-06-07T13:49:36.632Z,55.21
2019-06-07T13:52:05.145Z,54.80
2019-06-07T13:54:33.643Z,52.69
2019-06-07T13:57:03.258Z,52.66
2019-06-07T13:59:32.134Z,52.50
2019-06-07T14:02:00.780Z,52.30
2019-06-07T14:04:29.256Z,51.25
2019-06-07T14:06:57.661Z,50.43
2019-06-07T14:09:27.442Z,51.09
2019-06-07T14:11:56.102Z,50.98
2019-06-07T14:14:25.585Z,49.27
2019-06-07T14:16:54.773Z,48.63
2019-06-07T14:19:24.506Z,50.13
2019-06-07T14:21:53.180Z,47.87
2019-06-07T14:24:22.950Z,49.12
2019-06-07T14:27:06.531Z,48.39
2019-06-07T14:29:37.458Z,49.80
2019-06-07T14:32:08.064Z,50.10
2019-06-07T14:34:37.534Z,49.08
2019-06-07T14:37:08.146Z,47.49
2019-06-07T14:39:36.632Z,48.51
2019-06-07T14:42:09.720Z,49.78
2019-06-07T14:44:35.392Z,47.73
2019-06-07T14:47:03.911Z,48.63
2019-06-07T14:49:32.893Z,49.21
2019-06-07T14:52:02.585Z,48.98
2019-06-07T14:54:33.624Z,49.93
2019-06-07T14:57:03.392Z,50.97
2019-06-07T14:59:32.741Z,50.25
2019-06-07T15:02:01.322Z,52.10
2019-06-07T15:04:30.731Z,50.57
2019-06-07T15:06:59.274Z,51.42
2019-06-07T15:09:29.083Z,52.29
2019-06-07T15:11:57.590Z,51.94
2019-06-07T15:14:27.349Z,52.79
2019-06-07T15:16:55.881Z,51.24
2019-06-07T15:19:24.507Z,50.11
2019-06-07T15:21:52.915Z,49.09
2019-06-07T15:24:21.361Z,49.77
2019-06-07T15:26:49.859Z,50.74
2019-06-07T15:29:18.314Z,48.82
2019-06-07T15:31:46.702Z,49.99
2019-06-07T15:34:15.114Z,50.62
2019-06-07T15:36:43.575Z,50.62
2019-06-07T15:39:11.998Z,50.70
2019-06-07T15:41:40.422Z,50.11
2019-06-07T15:44:08.833Z,50.89
2019-06-07T15:46:37.940Z,51.31
2019-06-07T15:49:06.661Z,52.31
2019-06-07T15:51:36.566Z,53.33
2019-06-07T15:54:05.800Z,52.59
2019-06-07T15:56:34.680Z,53.40
2019-06-07T15:59:03.226Z,52.23
2019-06-07T16:01:31.625Z,52.99
2019-06-07T16:04:00.101Z,52.16
2019-06-07T16:06:28.571Z,52.16
2019-06-07T16:08:57.028Z,55.62
2019-06-07T16:11:25.523Z,58.72
2019-06-07T16:13:53.963Z,60.89
2019-06-07T16:16:22.377Z,62.10
2019-06-07T16:18:50.883Z,63.23
2019-06-07T16:21:19.344Z,63.19
2019-06-07T16:23:47.827Z,64.16
2019-06-07T16:26:16.331Z,65.91
2019-06-07T16:28:44.829Z,68.62
2019-06-07T16:31:13.235Z,68.46
2019-06-07T16:33:43.029Z,66.06
2019-06-07T16:36:11.647Z,66.06
2019-06-07T16:38:40.195Z,65.57
2019-06-07T16:41:08.539Z,66.78
2019-06-07T16:43:37.281Z,68.34
2019-06-07T16:46:07.042Z,68.76
2019-06-07T16:48:36.792Z,67.39
2019-06-07T16:51:05.391Z,67.39
2019-06-07T16:53:33.784Z,67.33
2019-06-07T16:56:02.196Z,67.44
2019-06-07T16:58:30.608Z,68.53
2019-06-07T17:00:59.010Z,67.75
2019-06-07T17:03:27.456Z,66.44
2019-06-07T17:05:55.885Z,66.20
2019-06-07T17:08:24.383Z,65.15
2019-06-07T17:10:52.857Z,65.15
2019-06-07T17:13:32.934Z,64.31
2019-06-07T17:15:51.540Z,64.63
2019-06-07T17:18:19.964Z,63.29
2019-06-07T17:20:49.449Z,62.30
2019-06-07T17:23:18.083Z,62.15
2019-06-07T17:25:47.527Z,61.45
2019-06-07T17:28:16.213Z,59.31
2019-06-07T17:30:46.097Z,57.79
2019-06-07T17:33:14.619Z,57.38
2019-06-07T17:35:44.651Z,56.96
2019-06-07T17:38:13.186Z,57.74
2019-06-07T17:40:42.727Z,56.88
2019-06-07T17:43:11.217Z,57.43
2019-06-07T17:45:39.635Z,56.73
2019-06-07T17:48:08.214Z,57.81
2019-06-07T17:50:36.628Z,56.40
2019-06-07T17:53:05.198Z,56.36
2019-06-07T17:55:33.904Z,55.94
2019-06-07T17:58:02.325Z,55.87
2019-06-07T18:00:36.594Z,56.58
2019-06-07T18:03:05.013Z,56.81
2019-06-07T18:05:34.041Z,56.69
2019-06-07T18:08:02.684Z,57.01
2019-06-07T18:10:36.751Z,58.12
2019-06-07T18:13:05.860Z,57.03
2019-06-07T18:15:42.201Z,56.98
2019-06-07T18:18:10.799Z,56.95
2019-06-07T18:20:39.835Z,56.93
2019-06-07T18:23:08.685Z,56.45
2019-06-07T18:25:37.172Z,57.08
2019-06-07T18:28:05.903Z,57.31
2019-06-07T18:30:34.473Z,56.71
2019-06-07T18:33:02.923Z,57.55
2019-06-07T18:35:31.353Z,57.21
2019-06-07T18:37:59.781Z,56.20
2019-06-07T18:40:28.269Z,54.82
2019-06-07T18:42:56.690Z,54.70
2019-06-07T18:45:25.134Z,54.65
2019-06-07T18:47:53.873Z,54.61
2019-06-07T18:50:22.276Z,53.21
2019-06-07T18:52:50.897Z,52.83
2019-06-07T18:55:19.805Z,52.35
2019-06-07T18:57:48.223Z,51.67
2019-06-07T19:00:18.833Z,52.33
2019-06-07T19:02:47.695Z,52.10
2019-06-07T19:05:17.693Z,51.56
2019-06-07T19:07:46.114Z,51.65
2019-06-07T19:10:16.068Z,50.51
2019-06-07T19:12:44.503Z,50.72
2019-06-07T19:15:14.957Z,49.54
2019-06-07T19:17:43.381Z,50.44
2019-06-07T19:20:13.038Z,49.52
2019-06-07T19:22:41.906Z,49.03
2019-06-07T19:25:11.172Z,49.26
2019-06-07T19:27:39.630Z,48.66
2019-06-07T19:30:10.855Z,49.60
2019-06-07T19:32:39.302Z,49.16
2019-06-07T19:35:08.375Z,48.39
2019-06-07T19:37:36.875Z,48.51
2019-06-07T19:40:08.831Z,48.42
2019-06-07T19:42:37.224Z,49.36
2019-06-07T19:45:29.167Z,49.83
2019-06-07T19:47:38.329Z,49.45
2019-06-07T19:50:08.097Z,50.26
2019-06-07T19:52:36.685Z,48.84
2019-06-07T19:55:09.833Z,49.02
2019-06-07T19:57:38.516Z,49.42
2019-06-07T20:00:14.078Z,49.86
2019-06-07T20:02:39.062Z,50.48
2019-06-07T20:05:10.566Z,50.08
2019-06-07T20:07:39.001Z,50.93
2019-06-07T20:10:07.556Z,51.34
2019-06-07T20:12:35.964Z,50.97
2019-06-07T20:15:27.234Z,51.51
2019-06-07T20:17:37.860Z,51.12
2019-06-07T20:20:08.770Z,53.22
2019-06-07T20:22:37.410Z,51.52
2019-06-07T20:25:07.172Z,52.12
2019-06-07T20:27:35.571Z,52.44
2019-06-07T20:30:09.009Z,52.90
2019-06-07T20:32:37.420Z,52.99
2019-06-07T20:35:08.262Z,52.17
2019-06-07T20:37:37.216Z,52.67
2019-06-07T20:40:23.529Z,52.76
2019-06-07T20:42:40.179Z,53.21
2019-06-07T20:45:08.872Z,53.71
2019-06-07T20:47:37.309Z,54.29
2019-06-07T20:50:09.139Z,53.57
2019-06-07T20:52:37.619Z,54.49
2019-06-07T20:55:09.098Z,55.21
2019-06-07T20:57:37.950Z,54.98
2019-06-07T21:00:20.682Z,56.12
2019-06-07T21:02:39.918Z,55.46
2019-06-07T21:05:09.778Z,55.46
2019-06-07T21:07:38.512Z,56.51
2019-06-07T21:10:10.874Z,56.12
2019-06-07T21:12:39.447Z,56.33
2019-06-07T21:15:12.779Z,56.45
2019-06-07T21:17:40.232Z,56.36
2019-06-07T21:20:13.652Z,57.08
2019-06-07T21:22:39.850Z,57.16
2019-06-07T21:25:09.554Z,57.33
2019-06-07T21:27:38.271Z,57.52
2019-06-07T21:30:11.740Z,57.48
2019-06-07T21:32:40.207Z,57.58
2019-06-07T21:35:10.370Z,58.00
2019-06-07T21:37:38.980Z,57.89
2019-06-07T21:40:08.505Z,58.16
2019-06-07T21:42:37.595Z,57.46
2019-06-07T21:45:07.856Z,57.55
2019-06-07T21:47:37.724Z,58.21
2019-06-07T21:50:08.681Z,58.09
2019-06-07T21:52:37.649Z,57.85
2019-06-07T21:55:07.224Z,57.98
2019-06-07T21:57:36.025Z,57.40
2019-06-07T22:00:09.248Z,57.36
2019-06-07T22:02:37.754Z,57.49
2019-06-07T22:05:07.720Z,58.02
2019-06-07T22:07:36.335Z,58.08
2019-06-07T22:10:07.995Z,58.21
2019-06-07T22:12:36.670Z,57.93
2019-06-07T22:15:27.360Z,58.16
2019-06-07T22:17:38.712Z,57.93
2019-06-07T22:20:08.908Z,58.56
2019-06-07T22:22:39.056Z,58.23
2019-06-07T22:25:09.178Z,58.16
2019-06-07T22:27:38.155Z,58.32
2019-06-07T22:30:08.715Z,58.45
2019-06-07T22:32:37.928Z,57.93
2019-06-07T22:35:07.346Z,57.77
2019-06-07T22:37:36.108Z,57.94
2019-06-07T22:40:10.722Z,58.94
2019-06-07T22:42:39.212Z,58.23
2019-06-07T22:45:10.822Z,58.05
2019-06-07T22:47:39.042Z,58.31
2019-06-07T22:50:10.443Z,58.31
2019-06-07T22:52:39.239Z,57.90
2019-06-07T22:55:10.270Z,57.92
2019-06-07T22:57:58.476Z,59.32
2019-06-07T23:00:29.408Z,58.03
2019-06-07T23:02:57.906Z,57.97
2019-06-07T23:05:26.308Z,58.01
2019-06-07T23:07:54.785Z,58.15
2019-06-07T23:10:23.361Z,58.34
2019-06-07T23:12:51.781Z,58.17
2019-06-07T23:15:20.855Z,57.88
2019-06-07T23:17:49.402Z,57.94
2019-06-07T23:20:18.261Z,58.09
2019-06-07T23:22:46.794Z,57.27
2019-06-07T23:25:20.137Z,57.66
2019-06-07T23:27:46.222Z,57.91
2019-06-07T23:30:16.500Z,57.98
2019-06-07T23:32:45.103Z,57.79
2019-06-07T23:35:15.140Z,58.34
2019-06-07T23:37:43.567Z,58.14
2019-06-07T23:40:13.148Z,58.85
2019-06-07T23:42:41.609Z,58.44
2019-06-07T23:45:11.872Z,58.79
2019-06-07T23:47:40.146Z,58.96
2019-06-07T23:50:09.702Z,59.46
2019-06-07T23:52:38.635Z,59.65
2019-06-07T23:55:07.288Z,59.91
2019-06-07T23:57:35.730Z,59.80
